createdAt,value
2019-05-23T00:01:13.743Z,10.31
2019-05-23T00:04:13.576Z,10.29
2019-05-23T00:07:00.511Z,10.11
2019-05-23T00:09:46.751Z,10.03
2019-05-23T00:12:34.213Z,10.10
2019-05-23T00:15:12.500Z,10.15
2019-05-23T00:17:44.252Z,10.02
2019-05-23T00:20:15.679Z,10.00
2019-05-23T00:22:43.920Z,10.03
2019-05-23T00:25:11.898Z,10.01
2019-05-23T00:27:42.335Z,10.04
2019-05-23T00:30:18.183Z,10.06
2019-05-23T00:32:49.417Z,10.04
2019-05-23T00:35:18.939Z,10.03
2019-05-23T00:37:48.077Z,9.91
2019-05-23T00:40:16.501Z,9.91
2019-05-23T00:42:44.811Z,10.04
2019-05-23T00:45:12.614Z,10.02
2019-05-23T00:47:40.259Z,10.05
2019-05-23T00:50:07.962Z,9.95
2019-05-23T00:52:37.434Z,9.92
2019-05-23T00:55:09.481Z,9.85
2019-05-23T00:57:39.354Z,9.87
2019-05-23T01:00:09.037Z,9.86
2019-05-23T01:02:36.207Z,9.83
2019-05-23T01:05:04.365Z,9.87
2019-05-23T01:07:32.539Z,9.81
2019-05-23T01:09:59.850Z,9.74
2019-05-23T01:12:27.759Z,9.66
2019-05-23T01:14:57.522Z,9.59
2019-05-23T01:17:26.580Z,9.67
2019-05-23T01:19:53.900Z,9.77
2019-05-23T01:22:21.690Z,9.80
2019-05-23T01:24:52.019Z,9.78
2019-05-23T01:27:20.100Z,9.83
2019-05-23T01:29:51.940Z,9.90
2019-05-23T01:32:26.623Z,9.86
2019-05-23T01:34:54.551Z,9.68
2019-05-23T01:37:22.345Z,9.68
2019-05-23T01:39:50.033Z,9.60
2019-05-23T01:42:17.802Z,9.68
2019-05-23T01:44:46.856Z,9.69
2019-05-23T01:47:14.697Z,9.56
2019-05-23T01:49:42.223Z,9.50
2019-05-23T01:52:11.205Z,9.44
2019-05-23T01:54:40.579Z,9.39
2019-05-23T01:57:10.102Z,9.21
2019-05-23T01:59:37.230Z,9.20
2019-05-23T02:02:04.503Z,9.19
2019-05-23T02:04:32.521Z,9.16
2019-05-23T02:06:59.798Z,9.08
2019-05-23T02:09:27.598Z,9.05
2019-05-23T02:11:54.727Z,8.99
2019-05-23T02:14:22.596Z,9.01
2019-05-23T02:16:49.789Z,9.02
2019-05-23T02:19:18.873Z,8.93
2019-05-23T02:21:46.151Z,8.92
2019-05-23T02:24:13.886Z,8.77
2019-05-23T02:26:41.351Z,8.71
2019-05-23T02:29:09.432Z,8.74
2019-05-23T02:31:37.033Z,8.75
2019-05-23T02:34:05.430Z,8.76
2019-05-23T02:36:33.864Z,8.75
2019-05-23T02:39:20.795Z,8.70
2019-05-23T02:41:57.668Z,8.70
2019-05-23T02:44:27.397Z,8.78
2019-05-23T02:47:03.399Z,8.69
2019-05-23T02:49:33.281Z,8.66
2019-05-23T02:52:14.832Z,8.75
2019-05-23T02:54:42.276Z,8.77
2019-05-23T02:57:11.058Z,8.51
2019-05-23T02:59:45.723Z,8.08
2019-05-23T03:02:56.094Z,7.75
2019-05-23T03:05:25.645Z,8.06
2019-05-23T03:07:53.575Z,8.50
2019-05-23T03:10:23.304Z,8.66
2019-05-23T03:12:52.659Z,8.67
2019-05-23T03:15:21.053Z,8.61
2019-05-23T03:17:52.019Z,8.54
2019-05-23T03:20:20.936Z,8.72
2019-05-23T03:22:53.848Z,8.96
2019-05-23T03:26:18.753Z,8.94
2019-05-23T03:28:47.814Z,8.87
2019-05-23T03:31:29.446Z,8.98
2019-05-23T03:33:52.241Z,8.89
2019-05-23T03:36:21.230Z,8.79
2019-05-23T03:38:49.318Z,8.79
2019-05-23T03:41:19.424Z,8.69
2019-05-23T03:43:46.514Z,8.66
2019-05-23T03:46:19.039Z,8.74
2019-05-23T03:48:46.667Z,8.84
2019-05-23T03:51:14.813Z,8.89
2019-05-23T03:53:44.957Z,9.05
2019-05-23T03:56:12.749Z,9.09
2019-05-23T03:58:43.660Z,9.22
2019-05-23T04:01:12.752Z,9.33
2019-05-23T04:03:42.137Z,9.26
2019-05-23T04:06:11.402Z,9.38
2019-05-23T04:08:38.591Z,9.54
2019-05-23T04:11:07.247Z,9.80
2019-05-23T04:13:38.198Z,10.07
2019-05-23T04:16:31.074Z,10.12
2019-05-23T04:19:01.127Z,10.29
2019-05-23T04:21:28.629Z,10.52
2019-05-23T04:23:56.508Z,10.73
2019-05-23T04:26:29.709Z,11.07
2019-05-23T04:28:59.277Z,11.50
2019-05-23T04:31:29.621Z,10.92
2019-05-23T04:33:56.681Z,11.13
2019-05-23T04:36:23.692Z,11.50
2019-05-23T04:38:50.948Z,11.81
2019-05-23T04:41:18.463Z,12.01
2019-05-23T04:43:45.444Z,12.34
2019-05-23T04:46:12.634Z,12.69
2019-05-23T04:48:39.679Z,12.97
2019-05-23T04:51:10.450Z,13.06
2019-05-23T04:53:38.231Z,13.19
2019-05-23T04:56:57.812Z,13.40
2019-05-23T04:59:51.264Z,13.50
2019-05-23T05:02:26.954Z,13.57
2019-05-23T05:04:52.780Z,13.38
2019-05-23T05:07:21.178Z,13.41
2019-05-23T05:09:48.620Z,13.45
2019-05-23T05:12:15.871Z,13.74
2019-05-23T05:14:42.867Z,14.08
2019-05-23T05:17:11.150Z,14.47
2019-05-23T05:19:38.793Z,14.84
2019-05-23T05:22:05.838Z,15.12
2019-05-23T05:24:32.861Z,15.42
2019-05-23T05:27:00.438Z,15.94
2019-05-23T05:29:27.381Z,16.43
2019-05-23T05:32:03.424Z,16.80
2019-05-23T05:34:28.532Z,17.03
2019-05-23T05:36:55.493Z,17.36
2019-05-23T05:39:23.403Z,17.67
2019-05-23T05:41:50.579Z,17.91
2019-05-23T05:44:18.292Z,18.03
2019-05-23T05:46:45.298Z,18.15
2019-05-23T05:49:12.984Z,18.43
2019-05-23T05:51:39.980Z,18.63
2019-05-23T05:54:08.540Z,18.90
2019-05-23T05:56:35.560Z,19.43
2019-05-23T05:59:03.905Z,19.76
2019-05-23T06:01:34.342Z,20.02
2019-05-23T06:04:01.641Z,19.99
2019-05-23T06:06:34.414Z,20.32
2019-05-23T06:09:07.429Z,20.21
2019-05-23T06:11:35.098Z,19.57
2019-05-23T06:14:02.266Z,19.36
2019-05-23T06:16:29.806Z,19.20
2019-05-23T06:18:56.884Z,18.97
2019-05-23T06:21:27.422Z,19.18
2019-05-23T06:25:13.558Z,19.56
2019-05-23T06:27:51.222Z,20.18
2019-05-23T06:30:20.916Z,20.94
2019-05-23T06:32:48.159Z,19.49
2019-05-23T06:35:15.631Z,18.91
2019-05-23T06:37:42.584Z,19.59
2019-05-23T06:40:10.050Z,20.21
2019-05-23T06:42:37.053Z,18.85
2019-05-23T06:45:07.225Z,16.77
2019-05-23T06:47:35.210Z,16.33
2019-05-23T06:50:04.366Z,14.76
2019-05-23T06:52:31.663Z,15.40
2019-05-23T06:54:59.878Z,15.78
2019-05-23T06:57:27.074Z,15.70
2019-05-23T06:59:54.219Z,16.88
2019-05-23T07:02:21.818Z,18.01
2019-05-23T07:04:49.677Z,19.22
2019-05-23T07:07:16.744Z,20.27
2019-05-23T07:09:44.009Z,21.30
2019-05-23T07:12:18.439Z,22.59
2019-05-23T07:14:58.410Z,23.16
2019-05-23T07:17:34.429Z,23.54
2019-05-23T07:20:10.054Z,23.11
2019-05-23T07:22:57.693Z,23.91
2019-05-23T07:25:41.351Z,23.89
2019-05-23T07:28:29.083Z,24.25
2019-05-23T07:31:05.742Z,24.49
2019-05-23T07:34:01.059Z,24.78
2019-05-23T07:36:23.136Z,24.56
2019-05-23T07:39:11.520Z,25.18
2019-05-23T07:41:40.828Z,25.64
2019-05-23T07:44:30.929Z,25.37
2019-05-23T07:47:10.030Z,26.57
2019-05-23T07:53:03.283Z,27.22
2019-05-23T07:55:55.605Z,28.60
2019-05-23T07:58:25.488Z,29.35
2019-05-23T08:00:57.745Z,29.47
2019-05-23T08:03:29.114Z,29.79
2019-05-23T08:05:59.102Z,27.88
2019-05-23T08:08:26.524Z,23.80
2019-05-23T08:10:56.375Z,25.92
2019-05-23T08:13:23.925Z,27.75
2019-05-23T08:15:51.788Z,28.02
2019-05-23T08:18:19.138Z,28.85
2019-05-23T08:20:46.201Z,29.67
2019-05-23T08:23:13.582Z,29.88
2019-05-23T08:25:47.792Z,30.48
2019-05-23T08:28:14.914Z,29.07
2019-05-23T08:30:42.615Z,29.36
2019-05-23T08:33:11.804Z,30.40
2019-05-23T08:35:42.380Z,29.24
2019-05-23T08:38:10.092Z,29.02
2019-05-23T08:40:38.150Z,30.39
2019-05-23T08:43:05.744Z,31.30
2019-05-23T08:45:34.511Z,31.16
2019-05-23T08:48:04.159Z,31.42
2019-05-23T08:50:31.339Z,30.87
2019-05-23T08:52:58.529Z,29.57
2019-05-23T08:55:26.308Z,30.35
2019-05-23T08:57:54.223Z,30.54
2019-05-23T09:00:24.067Z,30.08
2019-05-23T09:02:58.298Z,30.30
2019-05-23T09:05:27.576Z,30.40
2019-05-23T09:07:57.201Z,29.85
2019-05-23T09:10:29.117Z,27.55
2019-05-23T09:20:53.566Z,25.63
2019-05-23T09:23:28.092Z,27.67
2019-05-23T09:26:11.123Z,26.46
2019-05-23T09:28:40.226Z,28.17
2019-05-23T09:31:24.041Z,29.61
2019-05-23T09:33:52.779Z,27.32
2019-05-23T09:36:19.878Z,28.93
2019-05-23T09:38:47.365Z,29.94
2019-05-23T09:41:16.743Z,30.20
2019-05-23T09:43:44.499Z,30.03
2019-05-23T09:46:13.958Z,29.28
2019-05-23T09:48:41.831Z,27.95
2019-05-23T09:51:09.121Z,29.22
2019-05-23T09:53:37.645Z,30.09
2019-05-23T09:56:04.864Z,30.97
2019-05-23T09:58:32.140Z,30.75
2019-05-23T10:00:59.314Z,28.75
2019-05-23T10:03:26.890Z,28.12
2019-05-23T10:05:53.967Z,26.81
2019-05-23T10:08:21.375Z,28.15
2019-05-23T10:10:48.511Z,29.66
2019-05-23T10:13:15.922Z,30.69
2019-05-23T10:16:11.757Z,31.00
2019-05-23T10:18:40.441Z,31.69
2019-05-23T10:21:07.959Z,32.80
2019-05-23T10:23:35.077Z,31.94
2019-05-23T10:26:04.334Z,31.64
2019-05-23T10:28:32.112Z,32.30
2019-05-23T10:31:00.758Z,33.31
2019-05-23T10:33:28.993Z,34.84
2019-05-23T10:36:00.725Z,31.25
2019-05-23T10:38:29.456Z,32.58
2019-05-23T10:40:59.836Z,31.76
2019-05-23T10:43:27.824Z,32.60
2019-05-23T10:45:55.129Z,33.25
2019-05-23T10:48:22.744Z,33.54
2019-05-23T10:50:50.196Z,33.11
2019-05-23T10:53:17.594Z,31.19
2019-05-23T10:55:44.913Z,28.00
2019-05-23T10:58:15.619Z,28.41
2019-05-23T11:00:44.097Z,30.17
2019-05-23T11:03:12.366Z,29.89
2019-05-23T11:06:13.318Z,29.15
2019-05-23T11:08:30.575Z,30.16
2019-05-23T11:11:00.335Z,27.27
2019-05-23T11:13:28.057Z,23.95
2019-05-23T11:15:56.588Z,25.17
2019-05-23T11:18:24.613Z,28.00
2019-05-23T11:20:53.591Z,30.46
2019-05-23T11:23:25.134Z,31.29
2019-05-23T11:25:52.536Z,34.42
2019-05-23T11:28:19.616Z,37.64
2019-05-23T11:30:54.617Z,36.68
2019-05-23T11:33:21.995Z,30.52
2019-05-23T11:35:49.954Z,33.67
2019-05-23T11:38:17.201Z,35.71
2019-05-23T11:40:44.318Z,35.03
2019-05-23T11:43:11.411Z,34.37
2019-05-23T11:45:46.421Z,33.12
2019-05-23T11:48:16.137Z,29.56
2019-05-23T11:50:44.125Z,27.93
2019-05-23T11:53:11.275Z,32.81
2019-05-23T11:55:40.280Z,33.60
2019-05-23T11:58:11.451Z,33.16
2019-05-23T12:01:33.597Z,30.75
2019-05-23T12:04:32.906Z,31.64
2019-05-23T12:07:11.232Z,35.08
2019-05-23T12:09:38.441Z,41.24
2019-05-23T12:12:07.329Z,45.02
2019-05-23T12:14:35.006Z,47.57
2019-05-23T12:17:04.589Z,47.88
2019-05-23T12:19:32.223Z,48.29
2019-05-23T12:22:00.233Z,46.75
2019-05-23T12:24:27.758Z,45.27
2019-05-23T12:26:55.005Z,46.11
2019-05-23T12:29:25.116Z,47.05
2019-05-23T12:31:52.262Z,44.36
2019-05-23T12:34:24.181Z,43.66
2019-05-23T12:36:53.154Z,45.16
2019-05-23T12:39:21.522Z,46.57
2019-05-23T12:41:48.718Z,46.24
2019-05-23T12:44:17.838Z,44.48
2019-05-23T12:46:45.509Z,33.26
2019-05-23T12:49:27.392Z,34.57
2019-05-23T12:51:55.404Z,39.37
2019-05-23T12:54:24.078Z,36.22
2019-05-23T12:56:52.049Z,39.20
2019-05-23T12:59:21.165Z,40.07
2019-05-23T13:01:50.435Z,43.43
2019-05-23T13:04:19.790Z,39.06
2019-05-23T13:06:47.124Z,42.86
2019-05-23T13:09:14.889Z,44.31
2019-05-23T13:11:42.063Z,40.18
2019-05-23T13:14:09.484Z,39.34
2019-05-23T13:16:38.954Z,35.11
2019-05-23T13:19:06.806Z,35.05
2019-05-23T13:21:34.035Z,39.36
2019-05-23T13:24:02.499Z,40.97
2019-05-23T13:26:33.423Z,44.55
2019-05-23T13:29:04.265Z,46.11
2019-05-23T13:31:31.566Z,48.56
2019-05-23T13:34:01.458Z,48.14
2019-05-23T13:36:28.809Z,41.67
2019-05-23T13:38:56.228Z,41.67
2019-05-23T13:41:24.559Z,43.34
2019-05-23T13:44:01.614Z,39.79
2019-05-23T13:46:32.192Z,42.17
2019-05-23T13:49:01.737Z,44.06
2019-05-23T13:51:35.869Z,38.73
2019-05-23T13:54:04.040Z,35.93
2019-05-23T13:56:31.581Z,41.96
2019-05-23T13:59:00.500Z,46.10
2019-05-23T14:01:27.789Z,46.74
2019-05-23T14:03:55.239Z,47.44
2019-05-23T14:06:22.998Z,48.67
2019-05-23T14:08:50.440Z,39.60
2019-05-23T14:11:19.333Z,31.43
2019-05-23T14:13:47.246Z,32.04
2019-05-23T14:16:19.539Z,33.26
2019-05-23T14:18:49.503Z,38.82
2019-05-23T14:21:20.815Z,41.90
2019-05-23T14:23:51.123Z,43.71
2019-05-23T14:26:20.439Z,44.34
2019-05-23T14:28:51.907Z,44.66
2019-05-23T14:31:23.496Z,44.62
2019-05-23T14:34:13.720Z,41.06
2019-05-23T14:37:06.255Z,36.50
2019-05-23T14:39:39.223Z,32.90
2019-05-23T14:42:19.041Z,33.10
2019-05-23T14:44:48.799Z,35.58
2019-05-23T14:47:44.274Z,32.93
2019-05-23T14:50:32.837Z,36.79
2019-05-23T14:53:04.637Z,39.63
2019-05-23T14:55:37.775Z,41.15
2019-05-23T14:58:05.798Z,43.39
2019-05-23T15:00:37.681Z,45.34
2019-05-23T15:03:12.790Z,46.20
2019-05-23T15:05:50.789Z,34.05
2019-05-23T15:08:21.074Z,37.07
2019-05-23T15:10:49.931Z,41.34
2019-05-23T15:13:18.434Z,43.61
2019-05-23T15:15:51.154Z,45.57
2019-05-23T15:18:24.594Z,47.13
2019-05-23T15:21:13.981Z,45.47
2019-05-23T15:23:41.166Z,39.69
2019-05-23T15:26:22.503Z,33.99
2019-05-23T15:28:53.483Z,35.52
2019-05-23T15:31:26.962Z,35.86
2019-05-23T15:33:56.100Z,36.19
2019-05-23T15:36:23.493Z,37.91
2019-05-23T15:39:08.081Z,40.52
2019-05-23T15:41:23.378Z,38.39
2019-05-23T15:43:50.508Z,35.77
2019-05-23T15:46:18.933Z,29.69
2019-05-23T15:48:46.479Z,31.58
2019-05-23T15:51:17.805Z,29.63
2019-05-23T15:54:00.583Z,30.26
2019-05-23T15:56:33.306Z,33.23
2019-05-23T15:59:20.072Z,35.62
2019-05-23T16:02:06.978Z,30.30
2019-05-23T16:04:35.391Z,30.98
2019-05-23T16:07:03.125Z,33.67
2019-05-23T16:09:31.154Z,36.06
2019-05-23T16:11:59.080Z,37.42
2019-05-23T16:14:26.900Z,36.06
2019-05-23T16:16:56.718Z,35.58
2019-05-23T16:19:23.975Z,36.05
2019-05-23T16:21:51.490Z,37.73
2019-05-23T16:24:18.712Z,38.22
2019-05-23T16:26:46.758Z,37.76
2019-05-23T16:29:17.256Z,37.58
2019-05-23T16:31:46.073Z,37.08
2019-05-23T16:34:13.222Z,36.99
2019-05-23T16:36:40.351Z,38.68
2019-05-23T16:39:23.935Z,40.74
2019-05-23T16:41:51.293Z,40.07
2019-05-23T16:44:18.763Z,39.78
2019-05-23T16:46:46.151Z,39.89
2019-05-23T16:49:15.252Z,38.65
2019-05-23T16:51:42.580Z,39.70
2019-05-23T16:54:20.424Z,40.36
2019-05-23T16:57:28.349Z,39.68
2019-05-23T17:00:22.273Z,39.41
2019-05-23T17:03:16.676Z,40.01
2019-05-23T17:06:10.444Z,38.63
2019-05-23T17:08:50.145Z,38.47
2019-05-23T17:11:37.998Z,38.86
2019-05-23T17:14:15.438Z,38.95
2019-05-23T17:16:56.956Z,39.00
2019-05-23T17:19:46.705Z,39.22
2019-05-23T17:22:36.319Z,39.31
2019-05-23T17:25:20.543Z,39.08
2019-05-23T17:27:54.099Z,37.23
2019-05-23T17:30:28.003Z,36.76
2019-05-23T17:32:55.653Z,35.64
2019-05-23T17:35:23.255Z,35.46
2019-05-23T17:37:50.376Z,35.41
2019-05-23T17:40:25.063Z,34.80
2019-05-23T17:42:49.464Z,33.78
2019-05-23T17:45:17.643Z,32.93
2019-05-23T17:47:45.169Z,31.86
2019-05-23T17:50:12.292Z,31.34
2019-05-23T17:52:39.675Z,31.67
2019-05-23T17:55:07.189Z,32.27
2019-05-23T17:57:34.427Z,32.31
2019-05-23T18:00:01.769Z,31.89
2019-05-23T18:02:29.707Z,31.29
2019-05-23T18:05:01.742Z,29.61
2019-05-23T18:07:32.408Z,28.75
2019-05-23T18:10:01.717Z,27.00
2019-05-23T18:12:29.075Z,27.05
2019-05-23T18:14:58.528Z,27.30
2019-05-23T18:17:27.638Z,26.92
2019-05-23T18:19:54.777Z,27.07
2019-05-23T18:22:22.406Z,26.35
2019-05-23T18:24:49.742Z,26.00
2019-05-23T18:27:18.823Z,26.35
2019-05-23T18:29:46.692Z,26.72
2019-05-23T18:32:18.245Z,26.86
2019-05-23T18:35:09.220Z,27.06
2019-05-23T18:37:36.708Z,27.02
2019-05-23T18:40:04.562Z,26.66
2019-05-23T18:42:37.700Z,26.23
2019-05-23T18:45:06.005Z,25.71
2019-05-23T18:47:38.241Z,25.16
2019-05-23T18:50:11.311Z,24.66
2019-05-23T18:53:17.970Z,24.23
2019-05-23T18:56:21.284Z,23.99
2019-05-23T18:58:54.026Z,23.83
2019-05-23T19:01:26.167Z,23.53
2019-05-23T19:03:58.423Z,23.23
2019-05-23T19:06:25.821Z,22.86
2019-05-23T19:09:17.690Z,22.50
2019-05-23T19:11:54.665Z,22.14
2019-05-23T19:14:29.753Z,21.81
2019-05-23T19:16:58.326Z,21.58
2019-05-23T19:19:30.218Z,21.33
2019-05-23T19:21:59.222Z,21.13
2019-05-23T19:24:28.210Z,20.86
2019-05-23T19:26:58.174Z,20.70
2019-05-23T19:29:27.014Z,20.46
2019-05-23T19:31:58.893Z,20.21
2019-05-23T19:34:31.856Z,20.03
2019-05-23T19:37:08.707Z,19.72
2019-05-23T19:39:38.885Z,19.66
2019-05-23T19:42:07.439Z,19.42
2019-05-23T19:44:37.127Z,19.23
2019-05-23T19:47:11.682Z,19.12
2019-05-23T19:49:39.143Z,18.97
2019-05-23T19:52:07.212Z,18.83
2019-05-23T19:54:35.081Z,18.68
2019-05-23T19:57:05.070Z,18.56
2019-05-23T19:59:32.350Z,18.42
2019-05-23T20:02:21.983Z,18.22
2019-05-23T20:05:07.989Z,18.15
2019-05-23T20:07:36.129Z,18.06
2019-05-23T20:10:03.757Z,17.88
2019-05-23T20:12:31.436Z,17.71
2019-05-23T20:14:58.764Z,17.53
2019-05-23T20:17:25.890Z,17.36
2019-05-23T20:19:55.743Z,17.16
2019-05-23T20:22:24.195Z,17.03
2019-05-23T20:24:53.500Z,16.98
2019-05-23T20:27:24.027Z,16.93
2019-05-23T20:29:51.158Z,16.87
2019-05-23T20:32:18.917Z,16.81
2019-05-23T20:34:47.964Z,16.73
2019-05-23T20:37:15.214Z,16.66
2019-05-23T20:39:43.156Z,16.49
2019-05-23T20:42:12.046Z,16.47
2019-05-23T20:44:39.553Z,16.47
2019-05-23T20:47:07.915Z,16.40
2019-05-23T20:49:35.409Z,16.39
2019-05-23T20:52:03.562Z,16.10
2019-05-23T20:55:01.679Z,16.28
2019-05-23T20:57:45.212Z,16.39
2019-05-23T21:00:20.648Z,16.18
2019-05-23T21:02:48.557Z,16.01
2019-05-23T21:05:15.702Z,15.94
2019-05-23T21:07:43.289Z,15.92
2019-05-23T21:10:14.011Z,15.89
2019-05-23T21:12:41.074Z,15.85
2019-05-23T21:15:08.211Z,15.75
2019-05-23T21:17:35.705Z,15.82
2019-05-23T21:20:03.434Z,15.84
2019-05-23T21:22:31.896Z,15.92
2019-05-23T21:24:59.130Z,15.65
2019-05-23T21:27:26.785Z,15.47
2019-05-23T21:29:55.834Z,15.21
2019-05-23T21:32:26.733Z,15.17
2019-05-23T21:34:56.445Z,15.09
2019-05-23T21:37:23.619Z,14.96
2019-05-23T21:39:54.969Z,14.95
2019-05-23T21:42:23.989Z,15.04
2019-05-23T21:44:56.368Z,15.08
2019-05-23T21:47:23.484Z,15.07
2019-05-23T21:49:52.422Z,15.19
2019-05-23T21:52:20.140Z,15.04
2019-05-23T21:54:47.994Z,14.86
2019-05-23T21:57:16.594Z,14.84
2019-05-23T21:59:47.289Z,14.89
2019-05-23T22:02:21.650Z,14.84
2019-05-23T22:04:56.129Z,14.75
2019-05-23T22:07:28.982Z,14.73
2019-05-23T22:09:58.739Z,14.72
2019-05-23T22:12:25.974Z,14.70
2019-05-23T22:15:04.542Z,14.67
2019-05-23T22:17:31.914Z,14.65
2019-05-23T22:19:59.326Z,14.49
2019-05-23T22:22:26.881Z,14.49
2019-05-23T22:24:54.058Z,14.41
2019-05-23T22:27:22.102Z,14.28
2019-05-23T22:29:50.496Z,14.15
2019-05-23T22:32:19.794Z,14.18
2019-05-23T22:35:17.930Z,14.24
2019-05-23T22:37:49.179Z,14.33
2019-05-23T22:40:16.542Z,13.93
2019-05-23T22:42:45.719Z,13.78
2019-05-23T22:45:40.959Z,14.14
2019-05-23T22:48:14.807Z,14.31
2019-05-23T22:50:42.134Z,14.32
2019-05-23T22:53:09.689Z,14.33
2019-05-23T22:55:38.598Z,13.99
2019-05-23T22:58:07.693Z,13.64
2019-05-23T23:00:40.776Z,13.72
2019-05-23T23:03:08.503Z,13.77
2019-05-23T23:05:37.043Z,13.93
2019-05-23T23:08:06.524Z,13.94
2019-05-23T23:10:33.935Z,13.82
2019-05-23T23:13:01.019Z,13.94
2019-05-23T23:15:30.102Z,13.88
2019-05-23T23:17:59.467Z,13.86
2019-05-23T23:20:26.565Z,13.76
2019-05-23T23:22:53.719Z,13.75
2019-05-23T23:25:20.996Z,13.46
2019-05-23T23:27:48.313Z,13.38
2019-05-23T23:30:18.551Z,13.31
2019-05-23T23:32:45.726Z,13.24
2019-05-23T23:35:13.093Z,13.15
2019-05-23T23:37:41.527Z,13.30
2019-05-23T23:40:09.053Z,13.21
2019-05-23T23:42:38.285Z,13.13
2019-05-23T23:45:24.287Z,13.08
2019-05-23T23:48:09.580Z,13.13
2019-05-23T23:50:55.261Z,13.09
2019-05-23T23:53:40.818Z,13.09
2019-05-23T23:56:26.811Z,12.96
2019-05-23T23:58:53.637Z,12.93
